Time;durP1;ratioP1;P1;durP2;ratioP2;P2;SDS_P1;SDS_P2;PMS_P1;PMS_P2;Temp;Humidity;BMP_temperature;BMP_pressure;BME280_temperature;BME280_humidity;BME280_pressure;Samples;Min_cycle;Max_cycle;Signal;HPM_P1;HPM_P2
2020/12/07 00:00:41;;;;;;;33.55;17.90;;;4.90;99.90;;;;;;5019935;28;20046;-75
2020/12/07 00:03:07;;;;;;;33.35;17.85;;;4.90;99.80;;;;;;5022352;28;20396;-74
2020/12/07 00:05:33;;;;;;;34.88;18.40;;;4.90;99.90;;;;;;5018422;28;20060;-76
2020/12/07 00:08:01;;;;;;;34.35;17.08;;;4.80;99.90;;;;;;5016052;28;20026;-75
2020/12/07 00:10:27;;;;;;;30.30;17.50;;;4.90;99.70;;;;;;5019840;28;20037;-73
2020/12/07 00:12:53;;;;;;;32.30;18.02;;;4.90;99.90;;;;;;5028130;28;20069;-75
2020/12/07 00:15:18;;;;;;;32.42;17.80;;;4.90;99.60;;;;;;5019664;28;20064;-75
2020/12/07 00:17:44;;;;;;;34.00;17.77;;;4.90;99.60;;;;;;5014701;28;20046;-76
2020/12/07 00:20:11;;;;;;;31.48;17.25;;;4.90;99.70;;;;;;5024257;28;20175;-77
2020/12/07 00:22:37;;;;;;;37.25;18.00;;;4.90;99.90;;;;;;5020708;28;20029;-74
2020/12/07 00:25:04;;;;;;;32.80;17.45;;;4.80;99.90;;;;;;5024666;28;20511;-75
2020/12/07 00:27:32;;;;;;;32.13;17.90;;;4.80;99.90;;;;;;5030167;28;20100;-75
2020/12/07 00:29:59;;;;;;;35.65;17.83;;;4.80;99.90;;;;;;5015237;28;20041;-73
2020/12/07 00:32:26;;;;;;;35.58;17.60;;;4.80;99.90;;;;;;5023067;28;20042;-73
2020/12/07 00:34:53;;;;;;;34.40;18.15;;;4.80;99.90;;;;;;5017085;28;20041;-74
2020/12/07 00:37:21;;;;;;;34.13;17.75;;;4.80;99.90;;;;;;5024964;28;20073;-75
2020/12/07 00:39:47;;;;;;;36.00;18.65;;;4.80;99.90;;;;;;5017902;28;20115;-77
2020/12/07 00:42:13;;;;;;;35.47;17.30;;;4.70;99.90;;;;;;5030724;28;20053;-75
2020/12/07 00:44:40;;;;;;;36.25;18.20;;;4.70;99.90;;;;;;5015922;28;20044;-76
2020/12/07 00:47:08;;;;;;;37.55;17.55;;;4.70;99.90;;;;;;5023159;28;20073;-74
2020/12/07 00:49:36;;;;;;;34.30;17.25;;;4.60;99.90;;;;;;5012284;28;20038;-74
2020/12/07 00:52:01;;;;;;;33.60;17.40;;;4.60;99.90;;;;;;5013481;28;20105;-75
2020/12/07 00:54:27;;;;;;;35.33;17.33;;;4.60;99.90;;;;;;5017290;28;20453;-75
2020/12/07 00:56:57;;;;;;;35.78;18.75;;;4.60;99.90;;;;;;5017024;28;20834;-76
2020/12/07 00:59:23;;;;;;;32.33;16.98;;;4.60;99.90;;;;;;5019782;28;20053;-75
2020/12/07 01:01:52;;;;;;;28.73;15.25;;;4.50;99.90;;;;;;5014322;28;20229;-77
2020/12/07 01:04:18;;;;;;;31.33;16.40;;;4.50;99.90;;;;;;5017541;28;20092;-75
2020/12/07 01:06:45;;;;;;;33.55;18.45;;;4.50;99.90;;;;;;5018268;28;21161;-75
2020/12/07 01:09:22;;;;;;;31.38;16.50;;;4.50;99.90;;;;;;5018904;28;20031;-74
2020/12/07 01:11:59;;;;;;;33.05;16.88;;;4.40;99.90;;;;;;5017803;28;20041;-74
2020/12/07 01:14:26;;;;;;;32.35;16.92;;;4.40;99.90;;;;;;5012027;28;20049;-74
2020/12/07 01:16:53;;;;;;;31.23;16.35;;;4.40;99.90;;;;;;5010944;28;20061;-75
2020/12/07 01:19:21;;;;;;;31.98;16.88;;;4.30;99.90;;;;;;5015144;28;20368;-75
2020/12/07 01:21:47;;;;;;;35.22;18.13;;;4.30;99.90;;;;;;5024248;28;20040;-74
2020/12/07 01:24:13;;;;;;;34.65;18.25;;;4.30;99.90;;;;;;5027269;28;20487;-74
2020/12/07 01:26:39;;;;;;;35.17;17.25;;;4.30;99.90;;;;;;5011844;28;20030;-74
2020/12/07 01:29:06;;;;;;;32.17;16.48;;;4.30;99.90;;;;;;5025707;28;20052;-73
2020/12/07 01:31:32;;;;;;;32.45;17.13;;;4.30;99.90;;;;;;5018568;28;20034;-74
2020/12/07 01:33:58;;;;;;;33.33;18.60;;;4.30;99.90;;;;;;5015103;28;20391;-74
2020/12/07 01:36:27;;;;;;;33.58;18.05;;;4.30;99.90;;;;;;5024367;28;20052;-74
2020/12/07 01:38:53;;;;;;;33.65;17.55;;;4.20;99.90;;;;;;5018221;28;20075;-73
2020/12/07 01:41:19;;;;;;;30.38;16.70;;;4.20;99.90;;;;;;5014542;28;20034;-75
2020/12/07 01:43:45;;;;;;;31.48;16.17;;;4.30;99.90;;;;;;5027711;28;20029;-74
2020/12/07 01:46:22;;;;;;;31.95;16.80;;;4.30;99.90;;;;;;5022647;28;20188;-75
2020/12/07 01:48:49;;;;;;;33.10;17.38;;;4.30;99.90;;;;;;5015252;28;20495;-75
2020/12/07 01:51:16;;;;;;;34.45;17.42;;;4.30;99.90;;;;;;5023155;28;20061;-74
2020/12/07 01:53:43;;;;;;;32.22;17.10;;;4.30;99.90;;;;;;5025437;28;20038;-74
2020/12/07 01:56:14;;;;;;;31.58;16.42;;;4.30;99.90;;;;;;5031670;28;20033;-75
2020/12/07 01:58:41;;;;;;;;;;;4.40;99.90;;;;;;5019829;28;20041;-74
2020/12/07 02:01:07;;;;;;;31.90;16.92;;;4.30;99.90;;;;;;5020059;28;20434;-76
2020/12/07 02:03:33;;;;;;;31.15;16.55;;;4.40;99.90;;;;;;5015039;28;20037;-74
2020/12/07 02:05:59;;;;;;;32.47;15.25;;;4.40;99.90;;;;;;5020081;28;20038;-74
2020/12/07 02:08:25;;;;;;;32.25;16.73;;;4.40;99.90;;;;;;5020434;28;20529;-73
2020/12/07 02:10:51;;;;;;;30.42;16.10;;;4.40;99.90;;;;;;5016269;28;20030;-74
2020/12/07 02:13:16;;;;;;;33.25;17.90;;;4.30;99.90;;;;;;5020359;28;20087;-74
2020/12/07 02:15:42;;;;;;;30.13;15.68;;;4.30;99.90;;;;;;5029891;28;20164;-74
2020/12/07 02:18:08;;;;;;;29.08;15.82;;;4.30;99.90;;;;;;5019924;28;20030;-75
2020/12/07 02:20:35;;;;;;;27.35;15.27;;;4.30;99.90;;;;;;5016669;28;20057;-75
2020/12/07 02:23:01;;;;;;;29.85;15.52;;;4.30;99.90;;;;;;5023912;28;20076;-73
2020/12/07 02:25:27;;;;;;;30.80;16.02;;;4.30;99.90;;;;;;5025084;28;20611;-74
2020/12/07 02:27:53;;;;;;;30.20;15.77;;;4.30;99.90;;;;;;5020242;28;20035;-75
2020/12/07 02:30:21;;;;;;;30.50;14.57;;;4.40;99.90;;;;;;5015907;28;20490;-74
2020/12/07 02:32:48;;;;;;;30.45;15.63;;;4.40;99.90;;;;;;5027991;28;20121;-74
2020/12/07 02:35:15;;;;;;;30.35;15.65;;;4.40;99.90;;;;;;5016743;28;20054;-75
2020/12/07 02:37:42;;;;;;;29.40;14.77;;;4.40;99.90;;;;;;5013918;28;20479;-75
2020/12/07 02:40:09;;;;;;;30.02;15.20;;;4.30;99.90;;;;;;5013558;28;20037;-75
2020/12/07 02:42:37;;;;;;;30.40;15.75;;;4.30;99.90;;;;;;5025753;28;20033;-75
2020/12/07 02:45:09;;;;;;;30.65;15.20;;;4.40;99.90;;;;;;5014613;28;20026;-75
2020/12/07 02:47:34;;;;;;;27.17;14.27;;;4.40;99.90;;;;;;5020344;28;20026;-74
2020/12/07 02:50:01;;;;;;;25.45;13.73;;;4.40;99.90;;;;;;5015871;28;20076;-74
2020/12/07 02:52:28;;;;;;;26.15;13.85;;;4.40;99.90;;;;;;5020218;28;20033;-75
2020/12/07 02:55:03;;;;;;;28.02;14.45;;;4.40;99.90;;;;;;5021953;28;20453;-75
2020/12/07 02:57:29;;;;;;;26.67;14.07;;;4.30;99.90;;;;;;5030788;28;20111;-75
2020/12/07 02:59:55;;;;;;;29.77;15.73;;;4.40;99.90;;;;;;5019602;28;20089;-74
2020/12/07 03:02:21;;;;;;;26.88;14.25;;;4.40;99.90;;;;;;5017854;28;20454;-75
2020/12/07 03:04:48;;;;;;;26.58;14.05;;;4.50;99.90;;;;;;5018023;28;20065;-74
2020/12/07 03:07:14;;;;;;;28.52;14.85;;;4.50;99.90;;;;;;5022261;28;20410;-74
2020/12/07 03:09:40;;;;;;;24.73;13.48;;;4.50;99.90;;;;;;5022214;28;20305;-77
2020/12/07 03:12:09;;;;;;;27.08;14.10;;;4.40;99.90;;;;;;5021269;28;20061;-74
2020/12/07 03:14:36;;;;;;;26.23;13.98;;;4.40;99.90;;;;;;5012774;28;20041;-76
2020/12/07 03:17:02;;;;;;;25.08;13.80;;;4.30;99.90;;;;;;5020482;28;20025;-76
2020/12/07 03:19:28;;;;;;;28.27;14.30;;;4.30;99.90;;;;;;5016851;28;20037;-75
2020/12/07 03:21:54;;;;;;;27.52;14.85;;;4.30;99.90;;;;;;5024055;28;20105;-75
2020/12/07 03:24:20;;;;;;;27.60;14.10;;;4.30;99.90;;;;;;5021418;28;20080;-75
2020/12/07 03:26:46;;;;;;;26.85;14.93;;;4.30;99.90;;;;;;5026958;28;20098;-75
2020/12/07 03:29:12;;;;;;;28.65;14.35;;;4.30;99.90;;;;;;5015830;28;20116;-74
2020/12/07 03:31:39;;;;;;;29.23;14.73;;;4.20;99.90;;;;;;5009073;28;20444;-74
2020/12/07 03:34:07;;;;;;;29.48;14.10;;;4.20;99.90;;;;;;5014595;28;20030;-77
2020/12/07 03:36:34;;;;;;;28.05;14.85;;;4.30;99.90;;;;;;5016177;28;20037;-75
2020/12/07 03:39:00;;;;;;;27.52;14.35;;;4.30;99.90;;;;;;5022209;28;20113;-75
2020/12/07 03:41:26;;;;;;;26.35;13.95;;;4.30;99.90;;;;;;5023998;28;20038;-74
2020/12/07 03:43:52;;;;;;;27.45;14.00;;;4.30;99.90;;;;;;5015382;28;20030;-75
2020/12/07 03:46:18;;;;;;;26.58;14.07;;;4.30;99.90;;;;;;5020007;28;20098;-75
2020/12/07 03:48:43;;;;;;;27.38;13.90;;;4.30;99.90;;;;;;5026865;28;20084;-74
2020/12/07 03:51:09;;;;;;;27.70;14.63;;;4.40;99.90;;;;;;5024135;28;20018;-76
2020/12/07 03:53:37;;;;;;;24.75;13.32;;;4.40;99.90;;;;;;5031733;28;20096;-75
2020/12/07 03:56:04;;;;;;;27.17;13.05;;;4.40;99.90;;;;;;5026813;28;20091;-75
2020/12/07 03:58:31;;;;;;;25.45;13.40;;;4.40;99.90;;;;;;5030275;28;20041;-75
2020/12/07 04:00:57;;;;;;;27.30;14.00;;;4.40;99.90;;;;;;5028267;28;20125;-72
2020/12/07 04:03:24;;;;;;;23.42;11.98;;;4.40;99.90;;;;;;5026711;28;20030;-74
2020/12/07 04:05:59;;;;;;;23.42;12.18;;;4.40;99.90;;;;;;5014431;28;20419;-75
2020/12/07 04:08:24;;;;;;;25.13;12.52;;;4.40;99.90;;;;;;5026819;28;20022;-74
2020/12/07 04:10:57;;;;;;;23.73;12.05;;;4.50;99.90;;;;;;5015066;28;20482;-72
2020/12/07 04:13:23;;;;;;;24.15;13.15;;;4.40;99.90;;;;;;5030529;28;20040;-74
2020/12/07 04:15:49;;;;;;;26.67;12.88;;;4.30;99.90;;;;;;5031728;28;20038;-76
2020/12/07 04:18:15;;;;;;;27.85;12.30;;;4.30;99.90;;;;;;5022076;28;20037;-75
2020/12/07 04:20:41;;;;;;;23.10;12.38;;;4.30;99.90;;;;;;5020262;28;20056;-75
2020/12/07 04:23:07;;;;;;;27.55;12.98;;;4.30;99.90;;;;;;5026995;28;20030;-75
2020/12/07 04:25:33;;;;;;;25.42;13.57;;;4.30;99.90;;;;;;5020239;28;20045;-75
2020/12/07 04:27:59;;;;;;;23.60;12.13;;;4.30;99.90;;;;;;5014907;28;20034;-75
2020/12/07 04:30:25;;;;;;;23.25;11.63;;;4.30;99.90;;;;;;5018674;28;20042;-75
2020/12/07 04:32:51;;;;;;;22.67;11.88;;;4.30;99.90;;;;;;5017940;28;20068;-73
2020/12/07 04:35:17;;;;;;;22.55;12.05;;;4.30;99.90;;;;;;5018019;28;20376;-75
2020/12/07 04:37:43;;;;;;;21.83;11.15;;;4.30;99.90;;;;;;5016748;28;20026;-74
2020/12/07 04:40:09;;;;;;;25.73;12.52;;;4.30;99.90;;;;;;5022502;28;20037;-75
2020/12/07 04:42:38;;;;;;;25.25;12.13;;;4.30;99.90;;;;;;5017810;28;20068;-74
2020/12/07 04:45:05;;;;;;;23.58;11.90;;;4.30;99.90;;;;;;5019507;28;20045;-76
2020/12/07 04:47:33;;;;;;;21.27;11.32;;;4.30;99.90;;;;;;5017897;28;20026;-75
2020/12/07 04:50:04;;;;;;;22.40;11.07;;;4.30;99.90;;;;;;5025718;28;20502;-75
2020/12/07 04:52:31;;;;;;;22.92;12.15;;;4.20;99.90;;;;;;5014408;28;20053;-75
2020/12/07 04:55:00;;;;;;;21.02;11.70;;;4.30;99.90;;;;;;5022939;28;20042;-75
2020/12/07 04:57:26;;;;;;;21.42;12.30;;;4.30;99.90;;;;;;5023954;28;20069;-76
2020/12/07 04:59:53;;;;;;;21.33;11.45;;;4.30;99.90;;;;;;5024879;28;20117;-75
2020/12/07 05:02:19;;;;;;;24.55;12.35;;;4.30;99.90;;;;;;5021854;28;20037;-75
2020/12/07 05:04:45;;;;;;;24.10;12.77;;;4.40;99.90;;;;;;5015482;28;20045;-76
2020/12/07 05:07:11;;;;;;;20.05;10.70;;;4.40;99.90;;;;;;5025428;28;20171;-73
2020/12/07 05:09:38;;;;;;;23.60;12.27;;;4.40;99.90;;;;;;5032519;28;20029;-75
2020/12/07 05:12:14;;;;;;;22.88;12.23;;;4.40;99.90;;;;;;5020842;28;20021;-76
2020/12/07 05:14:40;;;;;;;20.08;11.20;;;4.40;99.90;;;;;;5023041;28;20022;-75
2020/12/07 05:17:06;;;;;;;18.92;10.57;;;4.40;99.90;;;;;;5022136;28;20423;-76
2020/12/07 05:19:32;;;;;;;22.60;11.77;;;4.40;99.90;;;;;;5017400;28;20041;-76
2020/12/07 05:21:58;;;;;;;23.13;12.05;;;4.40;99.90;;;;;;5014232;28;20082;-76
2020/12/07 05:24:25;;;;;;;20.83;11.50;;;4.30;99.90;;;;;;5015954;28;20033;-76
2020/12/07 05:26:52;;;;;;;24.58;12.45;;;4.30;99.90;;;;;;5023673;28;20435;-76
2020/12/07 05:29:40;;;;;;;25.45;12.93;;;4.30;99.90;;;;;;5018181;28;20033;-76
2020/12/07 05:32:07;;;;;;;25.58;12.30;;;4.30;99.90;;;;;;5025405;28;20025;-75
2020/12/07 05:34:33;;;;;;;22.80;11.98;;;4.30;99.90;;;;;;5016970;28;20044;-76
2020/12/07 05:36:59;;;;;;;23.52;12.55;;;4.20;99.90;;;;;;5027900;28;20112;-75
2020/12/07 05:39:25;;;;;;;25.67;12.38;;;4.20;99.90;;;;;;5006307;28;20045;-75
2020/12/07 05:41:54;;;;;;;24.00;12.23;;;4.10;99.90;;;;;;5024882;28;20014;-74
2020/12/07 05:44:21;;;;;;;26.95;12.73;;;4.10;99.90;;;;;;5018272;28;20030;-74
2020/12/07 05:46:48;;;;;;;27.15;12.35;;;4.10;99.90;;;;;;5014917;28;20025;-75
2020/12/07 05:49:16;;;;;;;23.88;12.98;;;4.10;99.90;;;;;;5024367;28;20042;-75
2020/12/07 05:51:51;;;;;;;22.42;12.32;;;4.10;99.90;;;;;;5018831;28;20033;-75
2020/12/07 05:54:19;;;;;;;22.67;12.43;;;4.20;99.90;;;;;;5019501;28;20038;-75
2020/12/07 05:56:48;;;;;;;22.67;11.85;;;4.20;99.90;;;;;;5021756;28;20052;-76
2020/12/07 05:59:30;;;;;;;25.83;13.18;;;4.20;99.90;;;;;;5011138;28;20042;-76
2020/12/07 06:01:58;;;;;;;25.20;12.77;;;4.20;99.90;;;;;;5019685;28;20032;-74
2020/12/07 06:04:27;;;;;;;22.38;11.80;;;4.30;99.90;;;;;;5018041;28;20045;-74
2020/12/07 06:06:59;;;;;;;23.50;11.18;;;4.40;99.90;;;;;;5019383;28;20071;-75
2020/12/07 06:09:28;;;;;;;23.65;11.88;;;4.40;99.90;;;;;;5023289;28;20507;-74
2020/12/07 06:12:08;;;;;;;24.35;12.70;;;4.40;99.90;;;;;;5020126;28;20049;-75
2020/12/07 06:14:37;;;;;;;23.33;12.75;;;4.30;99.90;;;;;;5019812;28;20058;-75
2020/12/07 06:17:03;;;;;;;23.10;12.55;;;4.20;99.90;;;;;;5016853;28;20038;-75
2020/12/07 06:19:32;;;;;;;24.15;12.48;;;;;;;;;;5017183;28;20045;-75
2020/12/07 06:21:59;;;;;;;28.65;13.10;;;;;;;;;;5014347;28;20044;-74
2020/12/07 06:24:58;;;;;;;27.90;13.23;;;4.30;99.90;;;;;;5014987;28;20164;-74
2020/12/07 06:27:25;;;;;;;28.35;13.57;;;;;;;;;;5018178;28;20038;-75
2020/12/07 06:30:05;;;;;;;29.13;14.27;;;4.80;99.90;;;;;;5014563;28;20029;-74
2020/12/07 06:32:44;;;;;;;30.33;15.38;;;4.20;99.90;;;;;;5018563;28;20396;-75
2020/12/07 06:35:10;;;;;;;34.28;16.25;;;4.00;99.90;;;;;;5017617;28;20034;-74
2020/12/07 06:37:41;;;;;;;32.15;14.43;;;4.20;99.90;;;;;;5029809;28;20422;-75
2020/12/07 06:40:07;;;;;;;31.10;15.73;;;4.20;99.90;;;;;;5027543;28;20041;-75
2020/12/07 06:42:39;;;;;;;28.88;14.43;;;4.20;99.90;;;;;;5020338;28;20426;-75
2020/12/07 06:45:08;;;;;;;34.58;15.15;;;4.20;99.90;;;;;;5014754;28;20689;-73
2020/12/07 06:47:34;;;;;;;29.80;14.32;;;;;;;;;;5025576;28;20034;-75
2020/12/07 06:50:14;;;;;;;30.00;14.77;;;4.30;99.90;;;;;;5024721;28;20100;-74
2020/12/07 06:52:42;;;;;;;29.52;15.32;;;4.20;99.90;;;;;;5020609;28;20131;-74
2020/12/07 06:55:14;;;;;;;31.40;14.73;;;4.30;99.90;;;;;;5030341;28;20033;-74
2020/12/07 06:57:45;;;;;;;29.30;14.07;;;4.00;99.90;;;;;;5028243;28;20671;-75
2020/12/07 07:00:19;;;;;;;30.55;15.18;;;4.30;99.90;;;;;;5031896;28;20053;-74
2020/12/07 07:02:46;;;;;;;31.85;15.35;;;4.30;99.90;;;;;;5031851;28;20021;-74
2020/12/07 07:05:16;;;;;;;30.55;15.38;;;4.20;99.90;;;;;;5033594;28;20056;-75
2020/12/07 07:07:42;;;;;;;32.53;15.55;;;4.20;99.90;;;;;;5030982;28;20041;-75
2020/12/07 07:10:10;;;;;;;32.70;15.38;;;4.30;99.90;;;;;;5032130;28;20047;-75
2020/12/07 07:12:37;;;;;;;33.42;16.10;;;4.30;99.90;;;;;;5029830;28;20104;-75
2020/12/07 07:15:05;;;;;;;30.08;14.43;;;4.30;99.90;;;;;;5024519;28;20061;-74
2020/12/07 07:17:32;;;;;;;35.60;15.93;;;4.20;99.90;;;;;;5017482;28;20503;-75
2020/12/07 07:20:01;;;;;;;33.35;15.30;;;4.20;99.90;;;;;;5025003;28;20033;-75
2020/12/07 07:22:27;;;;;;;32.40;16.67;;;4.20;99.90;;;;;;5022626;28;20042;-75
2020/12/07 07:30:04;;;;;;;31.77;15.85;;;4.20;99.90;;;;;;5021005;28;20092;-74
2020/12/07 07:32:42;;;;;;;29.27;16.02;;;4.20;99.90;;;;;;5025730;28;20037;-74
2020/12/07 07:35:10;;;;;;;32.65;17.42;;;4.20;99.90;;;;;;5019092;28;20049;-73
2020/12/07 07:37:37;;;;;;;31.50;18.02;;;4.30;99.90;;;;;;5031814;28;20068;-74
2020/12/07 07:40:16;;;;;;;31.33;17.17;;;4.30;99.90;;;;;;5026245;28;20076;-73
2020/12/07 07:42:50;;;;;;;33.67;18.33;;;4.20;99.90;;;;;;5038636;28;20038;-74
2020/12/07 07:45:19;;;;;;;34.40;18.42;;;4.20;99.90;;;;;;5025839;28;20037;-74
2020/12/07 07:48:01;;;;;;;32.67;18.13;;;4.30;99.90;;;;;;5026103;28;20471;-74
2020/12/07 08:15:19;;;;;;;44.58;22.42;;;4.00;99.90;;;;;;5012928;28;20111;-74
2020/12/07 08:16:19;;;;;;;39.67;20.15;;;3.90;99.90;;;;;;5015039;28;20026;-76
2020/12/07 08:18:46;;;;;;;31.85;18.05;;;4.00;99.90;;;;;;5016565;28;20046;-75
2020/12/07 08:21:13;;;;;;;37.40;20.55;;;4.10;99.90;;;;;;5017132;28;20067;-75
2020/12/07 08:23:41;;;;;;;39.17;19.83;;;4.10;99.90;;;;;;5018596;28;20081;-74
2020/12/07 08:26:07;;;;;;;37.88;22.13;;;4.00;99.90;;;;;;5012409;28;20134;-75
2020/12/07 08:28:41;;;;;;;38.40;21.17;;;4.10;99.90;;;;;;5022054;28;20125;-74
2020/12/07 08:31:06;;;;;;;37.03;20.08;;;4.10;99.90;;;;;;5014677;28;20109;-75
2020/12/07 08:33:35;;;;;;;31.90;17.98;;;4.20;99.90;;;;;;5019318;28;20457;-75
2020/12/07 08:36:01;;;;;;;31.48;17.80;;;4.30;99.90;;;;;;5026648;28;20076;-75
2020/12/07 08:38:31;;;;;;;30.27;16.77;;;4.30;99.90;;;;;;5012514;28;20133;-74
2020/12/07 08:41:13;;;;;;;33.13;17.75;;;4.50;99.90;;;;;;5018824;28;20046;-75
2020/12/07 08:43:42;;;;;;;30.33;16.13;;;4.30;99.90;;;;;;5012010;28;20057;-74
2020/12/07 08:46:10;;;;;;;31.38;16.92;;;4.30;99.90;;;;;;5011509;28;20041;-73
2020/12/07 08:48:37;;;;;;;29.90;16.30;;;4.30;99.90;;;;;;5023778;28;20124;-74
2020/12/07 08:51:03;;;;;;;36.88;19.98;;;4.20;99.90;;;;;;5015592;28;20033;-72
2020/12/07 08:53:29;;;;;;;32.10;17.80;;;4.20;99.90;;;;;;5014321;28;20041;-74
2020/12/07 08:56:00;;;;;;;26.88;13.82;;;4.10;99.90;;;;;;5015381;28;20044;-74
2020/12/07 08:58:26;;;;;;;28.95;16.10;;;4.20;99.90;;;;;;5018462;28;20426;-74
2020/12/07 09:00:51;;;;;;;30.13;16.48;;;4.20;99.90;;;;;;5001958;28;20042;-74
2020/12/07 09:03:17;;;;;;;32.92;15.80;;;3.90;99.90;;;;;;5015420;28;20104;-74
2020/12/07 09:05:43;;;;;;;32.95;15.88;;;3.90;99.90;;;;;;5014681;28;20088;-75
2020/12/07 09:08:08;;;;;;;32.17;15.40;;;3.80;99.90;;;;;;5005061;28;20442;-75
2020/12/07 09:10:34;;;;;;;30.90;15.57;;;3.80;99.90;;;;;;5010924;28;20466;-75
2020/12/07 09:13:01;;;;;;;30.40;15.20;;;3.90;99.90;;;;;;5013357;28;20367;-75
2020/12/07 09:15:27;;;;;;;32.50;14.68;;;3.90;99.90;;;;;;5018546;28;20488;-75
2020/12/07 09:17:52;;;;;;;33.13;15.27;;;4.00;99.90;;;;;;5018035;28;20048;-74
2020/12/07 09:20:19;;;;;;;31.42;14.95;;;4.00;99.90;;;;;;5017919;28;20040;-75
2020/12/07 09:22:45;;;;;;;32.60;15.85;;;4.10;99.90;;;;;;5012134;28;20042;-75
2020/12/07 09:25:11;;;;;;;30.98;15.05;;;4.10;99.90;;;;;;5020327;28;20530;-75
2020/12/07 09:27:36;;;;;;;35.03;16.95;;;4.10;99.90;;;;;;5021651;28;20030;-75
2020/12/07 09:30:02;;;;;;;30.00;15.70;;;4.10;99.90;;;;;;5008007;28;20045;-74
2020/12/07 09:32:28;;;;;;;33.95;16.08;;;4.10;99.90;;;;;;5011643;28;20092;-74
2020/12/07 09:34:54;;;;;;;30.67;15.75;;;4.10;99.90;;;;;;5012165;28;20546;-73
2020/12/07 09:37:19;;;;;;;31.83;16.10;;;4.10;99.90;;;;;;5015754;28;20132;-75
2020/12/07 09:39:45;;;;;;;33.05;16.27;;;4.10;99.90;;;;;;5014141;28;20095;-75
2020/12/07 09:42:11;;;;;;;30.17;15.55;;;4.00;99.90;;;;;;5013518;28;20038;-75
2020/12/07 09:44:37;;;;;;;34.20;16.60;;;4.10;99.90;;;;;;5010913;28;20329;-76
2020/12/07 09:47:03;;;;;;;32.47;15.52;;;4.00;99.90;;;;;;5018302;28;20048;-76
2020/12/07 09:49:28;;;;;;;32.92;16.27;;;4.00;99.90;;;;;;5021605;28;20512;-75
2020/12/07 09:51:54;;;;;;;29.98;14.88;;;3.90;99.90;;;;;;5017364;28;20042;-75
2020/12/07 09:54:20;;;;;;;32.75;14.98;;;4.00;99.90;;;;;;5024112;28;20578;-75
2020/12/07 09:56:46;;;;;;;33.85;15.65;;;4.00;99.90;;;;;;5017708;28;20053;-75
2020/12/07 09:59:12;;;;;;;29.45;14.75;;;4.10;99.90;;;;;;5023476;28;20042;-73
2020/12/07 10:01:38;;;;;;;29.35;14.48;;;4.10;99.90;;;;;;5009132;28;20128;-74
2020/12/07 10:04:04;;;;;;;27.80;13.70;;;4.10;99.90;;;;;;5014167;28;20037;-75
2020/12/07 10:06:32;;;;;;;31.17;14.15;;;4.00;99.90;;;;;;5011816;28;20077;-76
2020/12/07 10:08:58;;;;;;;37.58;18.75;;;4.10;99.90;;;;;;5022361;28;20060;-75
2020/12/07 10:11:24;;;;;;;28.38;14.38;;;4.10;99.90;;;;;;5011365;28;20484;-75
2020/12/07 10:13:50;;;;;;;28.05;13.43;;;4.00;99.90;;;;;;5010964;28;20048;-74
2020/12/07 10:16:16;;;;;;;26.67;13.75;;;4.10;99.90;;;;;;5007478;28;20042;-75
2020/12/07 10:18:42;;;;;;;27.67;14.00;;;4.10;99.90;;;;;;5015063;28;20045;-75
2020/12/07 10:21:08;;;;;;;25.85;13.70;;;4.00;99.90;;;;;;5009787;28;20038;-75
2020/12/07 10:23:34;;;;;;;28.73;13.63;;;4.00;99.90;;;;;;5020663;28;20091;-75
2020/12/07 10:25:59;;;;;;;24.40;12.18;;;4.10;99.90;;;;;;5014148;28;20034;-74
2020/12/07 10:28:25;;;;;;;27.42;14.20;;;4.10;99.90;;;;;;5021573;28;20399;-74
2020/12/07 10:30:51;;;;;;;27.02;12.30;;;4.10;99.90;;;;;;5008451;28;20042;-72
2020/12/07 10:33:16;;;;;;;29.17;13.77;;;4.10;99.90;;;;;;5022384;28;20052;-75
2020/12/07 10:35:42;;;;;;;25.73;12.95;;;4.30;99.90;;;;;;5021728;28;20079;-74
2020/12/07 10:38:08;;;;;;;21.17;10.73;;;4.30;99.90;;;;;;5014520;28;20072;-73
2020/12/07 10:40:34;;;;;;;24.80;12.00;;;4.30;99.90;;;;;;5016570;28;20076;-74
2020/12/07 10:42:59;;;;;;;26.40;12.65;;;4.40;99.90;;;;;;5020475;28;20487;-75
2020/12/07 10:45:25;;;;;;;25.73;12.57;;;4.40;99.90;;;;;;5015361;28;20042;-73
2020/12/07 10:48:01;;;;;;;25.23;12.50;;;4.30;99.90;;;;;;5022583;28;20029;-73
2020/12/07 10:50:27;;;;;;;26.85;14.23;;;4.30;99.90;;;;;;5019644;28;20538;-75
2020/12/07 10:52:53;;;;;;;22.83;11.00;;;4.40;99.90;;;;;;5016709;28;20041;-76
2020/12/07 10:55:19;;;;;;;22.67;10.50;;;4.30;99.90;;;;;;5019446;28;20601;-75
2020/12/07 10:57:46;;;;;;;24.13;10.82;;;4.50;99.90;;;;;;5020014;28;20070;-76
2020/12/07 11:00:12;;;;;;;24.08;12.10;;;4.60;99.90;;;;;;5016707;28;20933;-73
2020/12/07 11:02:38;;;;;;;21.58;11.10;;;4.50;99.90;;;;;;5024920;28;20053;-72
2020/12/07 11:05:04;;;;;;;22.58;10.80;;;4.50;99.90;;;;;;5022170;28;20037;-73
2020/12/07 11:07:31;;;;;;;20.23;10.68;;;4.70;99.70;;;;;;5021142;28;20042;-74
2020/12/07 11:09:57;;;;;;;19.27;9.90;;;4.80;99.30;;;;;;5016005;28;20033;-74
2020/12/07 11:12:24;;;;;;;21.83;10.88;;;4.70;99.50;;;;;;5019641;28;20420;-74
2020/12/07 11:14:50;;;;;;;20.08;10.40;;;4.70;99.90;;;;;;5014164;28;20181;-74
2020/12/07 11:17:15;;;;;;;22.85;11.45;;;4.70;99.60;;;;;;5013764;28;20040;-74
2020/12/07 11:19:43;;;;;;;23.38;10.55;;;4.70;99.70;;;;;;5019405;28;20591;-74
2020/12/07 11:22:12;;;;;;;18.52;9.82;;;4.70;99.80;;;;;;5019194;28;20499;-73
2020/12/07 11:24:39;;;;;;;19.95;10.35;;;4.70;99.60;;;;;;5018685;28;20550;-74
2020/12/07 11:27:05;;;;;;;21.98;11.00;;;4.60;99.80;;;;;;5017616;28;20048;-74
2020/12/07 11:29:32;;;;;;;22.27;10.93;;;4.50;99.90;;;;;;5016332;28;20030;-73
2020/12/07 11:31:57;;;;;;;21.17;10.55;;;4.50;99.90;;;;;;5017915;28;20435;-73
2020/12/07 11:34:23;;;;;;;20.60;10.88;;;4.60;99.90;;;;;;5021542;28;20116;-75
2020/12/07 11:36:50;;;;;;;23.27;10.88;;;4.60;99.90;;;;;;5018427;28;20044;-72
2020/12/07 11:41:56;;;;;;;20.77;10.65;;;4.80;99.30;;;;;;5013374;28;20305;-75
2020/12/07 11:44:22;;;;;;;18.60;9.85;;;4.90;98.90;;;;;;5023918;28;20270;-74
2020/12/07 11:47:02;;;;;;;20.92;9.90;;;4.80;99.00;;;;;;5020378;28;20476;-77
2020/12/07 11:49:28;;;;;;;21.52;10.27;;;4.90;99.20;;;;;;5017509;28;20033;-74
2020/12/07 11:51:54;;;;;;;21.60;10.65;;;4.90;99.60;;;;;;5014043;28;20124;-74
2020/12/07 11:54:20;;;;;;;20.17;10.68;;;4.80;99.60;;;;;;5014323;28;20527;-75
2020/12/07 11:56:46;;;;;;;24.05;11.93;;;4.80;99.30;;;;;;5017169;28;20220;-74
2020/12/07 11:59:12;;;;;;;20.33;10.85;;;4.80;99.50;;;;;;5015004;28;20037;-74
2020/12/07 12:01:38;;;;;;;21.55;11.27;;;4.80;99.70;;;;;;5013202;28;20033;-75
2020/12/07 12:04:04;;;;;;;23.48;11.18;;;4.70;99.70;;;;;;5020322;28;20037;-74
2020/12/07 12:06:34;;;;;;;22.75;11.45;;;4.90;99.90;;;;;;5023450;28;20046;-73
2020/12/07 12:09:02;;;;;;;22.02;11.43;;;4.90;99.50;;;;;;5021506;28;20112;-75
2020/12/07 12:11:29;;;;;;;18.77;10.50;;;5.00;99.80;;;;;;5020303;28;20061;-73
2020/12/07 12:13:55;;;;;;;22.00;10.80;;;5.10;99.40;;;;;;5016928;28;20036;-74
2020/12/07 12:16:23;;;;;;;20.30;10.52;;;5.20;99.00;;;;;;5019223;28;20422;-73
2020/12/07 12:18:50;;;;;;;18.60;9.02;;;5.20;99.20;;;;;;5014408;28;20369;-76
2020/12/07 12:21:16;;;;;;;18.50;10.45;;;5.40;98.20;;;;;;5018876;28;20530;-74
2020/12/07 12:23:41;;;;;;;20.30;10.55;;;5.50;98.30;;;;;;5019918;28;20038;-76
2020/12/07 12:26:07;;;;;;;19.67;10.50;;;5.80;98.70;;;;;;5016572;28;20443;-75
2020/12/07 12:28:33;;;;;;;20.08;9.95;;;5.20;98.40;;;;;;5012992;28;20125;-75
2020/12/07 12:30:59;;;;;;;21.02;9.48;;;5.20;98.40;;;;;;5017383;28;20133;-75
2020/12/07 12:33:25;;;;;;;18.45;9.02;;;5.20;98.10;;;;;;5022198;28;20316;-75
2020/12/07 12:35:51;;;;;;;17.98;9.38;;;5.20;98.30;;;;;;5019795;28;20060;-73
2020/12/07 12:38:17;;;;;;;20.60;9.55;;;5.20;98.50;;;;;;5015344;28;20037;-73
2020/12/07 12:40:42;;;;;;;15.85;8.85;;;5.20;98.70;;;;;;5021162;28;20459;-74
2020/12/07 12:43:08;;;;;;;17.48;9.55;;;5.20;98.10;;;;;;5013712;28;20496;-73
2020/12/07 12:45:34;;;;;;;15.57;8.68;;;5.30;98.10;;;;;;5020533;28;20143;-74
2020/12/07 12:48:00;;;;;;;19.48;9.23;;;5.20;98.20;;;;;;5022453;28;20395;-74
2020/12/07 12:50:26;;;;;;;17.15;9.15;;;5.50;97.90;;;;;;5017750;28;20052;-74
2020/12/07 12:52:51;;;;;;;17.27;9.25;;;5.30;98.10;;;;;;5017474;28;20125;-75
2020/12/07 12:55:17;;;;;;;17.88;9.23;;;5.30;98.00;;;;;;5020906;28;20658;-75
2020/12/07 12:57:44;;;;;;;17.75;9.20;;;5.30;98.20;;;;;;5013967;28;20045;-75
2020/12/07 13:00:10;;;;;;;16.73;8.75;;;5.30;98.20;;;;;;5013853;28;20041;-74
2020/12/07 13:02:36;;;;;;;18.20;9.55;;;5.30;98.30;;;;;;5012712;28;20030;-75
2020/12/07 13:05:03;;;;;;;18.00;8.90;;;5.30;98.20;;;;;;5016370;28;20121;-74
2020/12/07 13:07:28;;;;;;;17.73;9.02;;;5.30;98.20;;;;;;5013174;28;20045;-74
2020/12/07 13:09:54;;;;;;;16.10;8.35;;;5.20;97.90;;;;;;5018252;28;20120;-75